sensor_id;sensor_type;location;lat;lon;timestamp;temperature;humidity
22469;DHT22;11401;50.792;4.352;2022-11-14T00:01:53;15.10;63.00
22469;DHT22;11401;50.792;4.352;2022-11-14T00:04:39;15.10;62.90
22469;DHT22;11401;50.792;4.352;2022-11-14T00:07:25;15.10;62.70
22469;DHT22;11401;50.792;4.352;2022-11-14T00:10:14;15.10;62.70
22469;DHT22;11401;50.792;4.352;2022-11-14T00:12:59;15.10;62.90
22469;DHT22;11401;50.792;4.352;2022-11-14T00:15:48;15.10;62.50
22469;DHT22;11401;50.792;4.352;2022-11-14T00:18:34;15.00;62.90
22469;DHT22;11401;50.792;4.352;2022-11-14T00:21:20;15.10;63.60
22469;DHT22;11401;50.792;4.352;2022-11-14T00:24:05;15.20;62.60
22469;DHT22;11401;50.792;4.352;2022-11-14T00:26:50;15.20;62.30
22469;DHT22;11401;50.792;4.352;2022-11-14T00:29:36;15.20;61.80
22469;DHT22;11401;50.792;4.352;2022-11-14T00:32:21;15.20;62.80
22469;DHT22;11401;50.792;4.352;2022-11-14T00:35:07;15.20;63.00
22469;DHT22;11401;50.792;4.352;2022-11-14T00:37:53;15.20;62.40
22469;DHT22;11401;50.792;4.352;2022-11-14T00:40:38;15.20;61.80
22469;DHT22;11401;50.792;4.352;2022-11-14T00:43:24;15.20;62.10
22469;DHT22;11401;50.792;4.352;2022-11-14T00:46:09;15.20;61.40
22469;DHT22;11401;50.792;4.352;2022-11-14T00:48:55;15.10;60.80
22469;DHT22;11401;50.792;4.352;2022-11-14T00:51:40;15.00;62.30
22469;DHT22;11401;50.792;4.352;2022-11-14T00:54:26;15.10;62.60
22469;DHT22;11401;50.792;4.352;2022-11-14T00:57:11;15.10;61.90
22469;DHT22;11401;50.792;4.352;2022-11-14T00:59:57;15.00;62.10
22469;DHT22;11401;50.792;4.352;2022-11-14T01:02:42;15.10;62.40
22469;DHT22;11401;50.792;4.352;2022-11-14T01:05:28;15.10;62.00
22469;DHT22;11401;50.792;4.352;2022-11-14T01:08:14;15.10;62.20
22469;DHT22;11401;50.792;4.352;2022-11-14T01:11:00;15.10;62.00
22469;DHT22;11401;50.792;4.352;2022-11-14T01:13:53;15.10;61.80
22469;DHT22;11401;50.792;4.352;2022-11-14T01:16:38;15.10;62.20
22469;DHT22;11401;50.792;4.352;2022-11-14T01:19:24;15.10;61.70
22469;DHT22;11401;50.792;4.352;2022-11-14T01:22:09;15.10;61.40
22469;DHT22;11401;50.792;4.352;2022-11-14T01:24:54;15.00;61.60
22469;DHT22;11401;50.792;4.352;2022-11-14T01:27:42;15.00;62.00
22469;DHT22;11401;50.792;4.352;2022-11-14T01:30:28;15.10;61.80
22469;DHT22;11401;50.792;4.352;2022-11-14T01:33:13;15.00;62.90
22469;DHT22;11401;50.792;4.352;2022-11-14T01:35:59;15.10;62.30
22469;DHT22;11401;50.792;4.352;2022-11-14T01:38:45;15.10;61.80
22469;DHT22;11401;50.792;4.352;2022-11-14T01:41:30;15.00;62.20
22469;DHT22;11401;50.792;4.352;2022-11-14T01:44:36;15.00;61.80
22469;DHT22;11401;50.792;4.352;2022-11-14T01:47:26;15.00;62.20
22469;DHT22;11401;50.792;4.352;2022-11-14T01:50:13;14.90;61.20
22469;DHT22;11401;50.792;4.352;2022-11-14T01:52:58;14.90;62.00
22469;DHT22;11401;50.792;4.352;2022-11-14T01:55:44;14.90;62.30
22469;DHT22;11401;50.792;4.352;2022-11-14T01:58:30;14.90;62.20
22469;DHT22;11401;50.792;4.352;2022-11-14T02:01:18;14.90;62.20
22469;DHT22;11401;50.792;4.352;2022-11-14T02:04:04;14.90;61.40
22469;DHT22;11401;50.792;4.352;2022-11-14T02:06:54;14.90;61.40
22469;DHT22;11401;50.792;4.352;2022-11-14T02:09:45;14.90;62.00
22469;DHT22;11401;50.792;4.352;2022-11-14T02:12:31;14.90;61.80
22469;DHT22;11401;50.792;4.352;2022-11-14T02:15:17;14.90;62.30
22469;DHT22;11401;50.792;4.352;2022-11-14T02:18:03;15.00;62.30
22469;DHT22;11401;50.792;4.352;2022-11-14T02:20:49;15.00;62.20
22469;DHT22;11401;50.792;4.352;2022-11-14T02:23:34;15.10;61.70
22469;DHT22;11401;50.792;4.352;2022-11-14T02:26:21;15.00;60.70
22469;DHT22;11401;50.792;4.352;2022-11-14T02:29:08;15.00;61.40
22469;DHT22;11401;50.792;4.352;2022-11-14T02:31:53;14.90;61.30
22469;DHT22;11401;50.792;4.352;2022-11-14T02:34:41;15.00;62.20
22469;DHT22;11401;50.792;4.352;2022-11-14T02:37:26;15.00;61.30
22469;DHT22;11401;50.792;4.352;2022-11-14T02:40:12;15.00;61.50
22469;DHT22;11401;50.792;4.352;2022-11-14T02:42:57;15.10;61.70
22469;DHT22;11401;50.792;4.352;2022-11-14T02:45:43;15.10;61.00
22469;DHT22;11401;50.792;4.352;2022-11-14T02:48:28;15.00;61.20
22469;DHT22;11401;50.792;4.352;2022-11-14T02:51:14;15.00;60.30
22469;DHT22;11401;50.792;4.352;2022-11-14T02:54:00;14.90;61.20
22469;DHT22;11401;50.792;4.352;2022-11-14T02:56:45;14.90;61.70
22469;DHT22;11401;50.792;4.352;2022-11-14T02:59:30;14.80;61.50
22469;DHT22;11401;50.792;4.352;2022-11-14T03:02:16;14.90;61.60
22469;DHT22;11401;50.792;4.352;2022-11-14T03:05:02;14.80;61.70
22469;DHT22;11401;50.792;4.352;2022-11-14T03:07:47;14.80;61.60
22469;DHT22;11401;50.792;4.352;2022-11-14T03:10:32;14.80;61.70
22469;DHT22;11401;50.792;4.352;2022-11-14T03:13:18;14.80;61.50
22469;DHT22;11401;50.792;4.352;2022-11-14T03:16:09;14.80;61.10
22469;DHT22;11401;50.792;4.352;2022-11-14T03:18:55;14.70;60.90
22469;DHT22;11401;50.792;4.352;2022-11-14T03:21:40;14.70;61.50
22469;DHT22;11401;50.792;4.352;2022-11-14T03:24:26;14.70;61.40
22469;DHT22;11401;50.792;4.352;2022-11-14T03:27:11;14.70;61.70
22469;DHT22;11401;50.792;4.352;2022-11-14T03:29:56;14.70;61.80
22469;DHT22;11401;50.792;4.352;2022-11-14T03:32:42;14.80;61.10
22469;DHT22;11401;50.792;4.352;2022-11-14T03:35:27;14.70;60.70
22469;DHT22;11401;50.792;4.352;2022-11-14T03:38:13;14.60;60.60
22469;DHT22;11401;50.792;4.352;2022-11-14T03:40:59;14.70;61.40
22469;DHT22;11401;50.792;4.352;2022-11-14T03:43:44;14.70;61.10
22469;DHT22;11401;50.792;4.352;2022-11-14T03:46:30;14.70;61.40
22469;DHT22;11401;50.792;4.352;2022-11-14T03:49:15;14.80;61.60
22469;DHT22;11401;50.792;4.352;2022-11-14T03:52:01;14.80;61.30
22469;DHT22;11401;50.792;4.352;2022-11-14T03:54:47;14.70;61.10
22469;DHT22;11401;50.792;4.352;2022-11-14T03:57:32;14.70;61.20
22469;DHT22;11401;50.792;4.352;2022-11-14T04:00:18;14.70;61.50
22469;DHT22;11401;50.792;4.352;2022-11-14T04:03:04;14.70;61.70
22469;DHT22;11401;50.792;4.352;2022-11-14T04:05:49;14.70;61.00
22469;DHT22;11401;50.792;4.352;2022-11-14T04:08:35;14.70;61.50
22469;DHT22;11401;50.792;4.352;2022-11-14T04:11:20;14.60;60.60
22469;DHT22;11401;50.792;4.352;2022-11-14T04:14:06;14.60;61.80
22469;DHT22;11401;50.792;4.352;2022-11-14T04:16:51;14.60;61.60
22469;DHT22;11401;50.792;4.352;2022-11-14T04:19:36;14.60;60.50
22469;DHT22;11401;50.792;4.352;2022-11-14T04:22:22;14.50;61.60
22469;DHT22;11401;50.792;4.352;2022-11-14T04:25:08;14.60;61.90
22469;DHT22;11401;50.792;4.352;2022-11-14T04:27:53;14.60;61.40
22469;DHT22;11401;50.792;4.352;2022-11-14T04:30:39;14.50;61.40
22469;DHT22;11401;50.792;4.352;2022-11-14T04:33:25;14.50;61.40
22469;DHT22;11401;50.792;4.352;2022-11-14T04:36:10;14.40;61.80
22469;DHT22;11401;50.792;4.352;2022-11-14T04:38:56;14.40;62.00
22469;DHT22;11401;50.792;4.352;2022-11-14T04:41:41;14.50;61.70
22469;DHT22;11401;50.792;4.352;2022-11-14T04:44:27;14.50;61.50
22469;DHT22;11401;50.792;4.352;2022-11-14T04:47:13;14.40;61.30
22469;DHT22;11401;50.792;4.352;2022-11-14T04:49:58;14.40;61.70
22469;DHT22;11401;50.792;4.352;2022-11-14T04:52:44;14.40;61.20
22469;DHT22;11401;50.792;4.352;2022-11-14T04:55:29;14.30;60.20
22469;DHT22;11401;50.792;4.352;2022-11-14T04:58:14;14.20;61.20
22469;DHT22;11401;50.792;4.352;2022-11-14T05:01:07;14.10;61.00
22469;DHT22;11401;50.792;4.352;2022-11-14T05:03:52;14.00;61.70
22469;DHT22;11401;50.792;4.352;2022-11-14T05:06:38;13.90;61.90
22469;DHT22;11401;50.792;4.352;2022-11-14T05:09:23;13.90;62.30
22469;DHT22;11401;50.792;4.352;2022-11-14T05:12:09;13.80;62.40
22469;DHT22;11401;50.792;4.352;2022-11-14T05:14:54;13.80;62.60
22469;DHT22;11401;50.792;4.352;2022-11-14T05:17:40;13.80;62.70
22469;DHT22;11401;50.792;4.352;2022-11-14T05:20:25;13.70;62.80
22469;DHT22;11401;50.792;4.352;2022-11-14T05:23:22;13.70;63.50
22469;DHT22;11401;50.792;4.352;2022-11-14T05:26:09;13.80;63.50
22469;DHT22;11401;50.792;4.352;2022-11-14T05:28:55;13.90;63.40
22469;DHT22;11401;50.792;4.352;2022-11-14T05:31:40;13.90;62.90
22469;DHT22;11401;50.792;4.352;2022-11-14T05:34:26;14.00;62.50
22469;DHT22;11401;50.792;4.352;2022-11-14T05:37:11;13.90;63.30
22469;DHT22;11401;50.792;4.352;2022-11-14T05:39:57;13.90;63.20
22469;DHT22;11401;50.792;4.352;2022-11-14T05:42:42;13.90;62.90
22469;DHT22;11401;50.792;4.352;2022-11-14T05:45:29;13.80;63.90
22469;DHT22;11401;50.792;4.352;2022-11-14T05:48:15;13.90;63.70
22469;DHT22;11401;50.792;4.352;2022-11-14T05:51:01;13.80;60.90
22469;DHT22;11401;50.792;4.352;2022-11-14T05:53:49;13.70;60.60
22469;DHT22;11401;50.792;4.352;2022-11-14T05:56:34;13.50;59.30
22469;DHT22;11401;50.792;4.352;2022-11-14T05:59:20;13.10;60.00
22469;DHT22;11401;50.792;4.352;2022-11-14T06:02:05;12.70;62.30
22469;DHT22;11401;50.792;4.352;2022-11-14T06:04:51;12.50;64.00
22469;DHT22;11401;50.792;4.352;2022-11-14T06:07:36;12.40;65.00
22469;DHT22;11401;50.792;4.352;2022-11-14T06:10:23;12.30;65.50
22469;DHT22;11401;50.792;4.352;2022-11-14T06:13:09;12.30;65.90
22469;DHT22;11401;50.792;4.352;2022-11-14T06:16:02;12.30;65.60
22469;DHT22;11401;50.792;4.352;2022-11-14T06:18:48;12.30;65.30
22469;DHT22;11401;50.792;4.352;2022-11-14T06:21:33;12.10;65.60
22469;DHT22;11401;50.792;4.352;2022-11-14T06:24:19;12.00;66.00
22469;DHT22;11401;50.792;4.352;2022-11-14T06:27:04;11.80;67.00
22469;DHT22;11401;50.792;4.352;2022-11-14T06:29:49;11.70;67.00
22469;DHT22;11401;50.792;4.352;2022-11-14T06:32:35;11.80;67.30
22469;DHT22;11401;50.792;4.352;2022-11-14T06:35:21;11.80;67.10
22469;DHT22;11401;50.792;4.352;2022-11-14T06:38:07;11.90;66.90
22469;DHT22;11401;50.792;4.352;2022-11-14T06:41:03;12.00;66.30
22469;DHT22;11401;50.792;4.352;2022-11-14T06:43:50;11.90;67.10
22469;DHT22;11401;50.792;4.352;2022-11-14T06:46:38;11.90;67.30
22469;DHT22;11401;50.792;4.352;2022-11-14T06:49:23;11.90;66.20
22469;DHT22;11401;50.792;4.352;2022-11-14T06:52:09;12.00;67.50
22469;DHT22;11401;50.792;4.352;2022-11-14T06:54:54;12.40;68.00
22469;DHT22;11401;50.792;4.352;2022-11-14T06:57:40;12.70;66.60
22469;DHT22;11401;50.792;4.352;2022-11-14T07:00:25;12.90;69.40
22469;DHT22;11401;50.792;4.352;2022-11-14T07:03:11;13.10;65.50
22469;DHT22;11401;50.792;4.352;2022-11-14T07:05:57;13.20;65.20
22469;DHT22;11401;50.792;4.352;2022-11-14T07:08:43;13.20;64.30
22469;DHT22;11401;50.792;4.352;2022-11-14T07:11:28;13.30;64.90
22469;DHT22;11401;50.792;4.352;2022-11-14T07:14:16;13.30;64.10
22469;DHT22;11401;50.792;4.352;2022-11-14T07:17:01;13.20;64.30
22469;DHT22;11401;50.792;4.352;2022-11-14T07:19:47;13.40;65.20
22469;DHT22;11401;50.792;4.352;2022-11-14T07:22:32;13.30;63.70
22469;DHT22;11401;50.792;4.352;2022-11-14T07:25:17;13.40;64.30
22469;DHT22;11401;50.792;4.352;2022-11-14T07:28:06;13.30;64.10
22469;DHT22;11401;50.792;4.352;2022-11-14T07:30:51;13.20;63.90
22469;DHT22;11401;50.792;4.352;2022-11-14T07:33:37;13.40;64.00
22469;DHT22;11401;50.792;4.352;2022-11-14T07:36:23;13.50;64.40
22469;DHT22;11401;50.792;4.352;2022-11-14T07:39:08;13.50;64.50
22469;DHT22;11401;50.792;4.352;2022-11-14T07:41:53;13.60;63.90
22469;DHT22;11401;50.792;4.352;2022-11-14T07:44:39;13.60;63.90
22469;DHT22;11401;50.792;4.352;2022-11-14T07:47:25;13.60;64.20
22469;DHT22;11401;50.792;4.352;2022-11-14T07:50:11;13.70;63.70
22469;DHT22;11401;50.792;4.352;2022-11-14T07:53:03;13.80;63.00
22469;DHT22;11401;50.792;4.352;2022-11-14T07:55:48;13.70;63.30
22469;DHT22;11401;50.792;4.352;2022-11-14T07:58:34;13.70;63.70
22469;DHT22;11401;50.792;4.352;2022-11-14T08:01:20;13.80;63.90
22469;DHT22;11401;50.792;4.352;2022-11-14T08:04:05;13.90;63.50
22469;DHT22;11401;50.792;4.352;2022-11-14T08:06:51;14.00;63.70
22469;DHT22;11401;50.792;4.352;2022-11-14T08:09:36;14.10;62.60
22469;DHT22;11401;50.792;4.352;2022-11-14T08:12:22;14.20;62.90
22469;DHT22;11401;50.792;4.352;2022-11-14T08:15:09;14.20;62.90
22469;DHT22;11401;50.792;4.352;2022-11-14T08:17:59;14.40;63.20
22469;DHT22;11401;50.792;4.352;2022-11-14T08:20:45;14.40;62.70
22469;DHT22;11401;50.792;4.352;2022-11-14T08:23:31;14.40;61.60
22469;DHT22;11401;50.792;4.352;2022-11-14T08:26:16;14.40;62.60
22469;DHT22;11401;50.792;4.352;2022-11-14T08:29:02;14.50;61.80
22469;DHT22;11401;50.792;4.352;2022-11-14T08:31:48;14.60;62.00
22469;DHT22;11401;50.792;4.352;2022-11-14T08:34:33;14.60;61.60
22469;DHT22;11401;50.792;4.352;2022-11-14T08:37:20;14.70;62.00
22469;DHT22;11401;50.792;4.352;2022-11-14T08:40:06;14.90;61.60
22469;DHT22;11401;50.792;4.352;2022-11-14T08:42:58;14.90;59.90
22469;DHT22;11401;50.792;4.352;2022-11-14T08:45:44;14.90;60.20
22469;DHT22;11401;50.792;4.352;2022-11-14T08:48:30;15.00;60.20
22469;DHT22;11401;50.792;4.352;2022-11-14T08:51:18;15.10;60.70
22469;DHT22;11401;50.792;4.352;2022-11-14T08:54:03;15.20;59.50
22469;DHT22;11401;50.792;4.352;2022-11-14T08:56:49;15.30;60.40
22469;DHT22;11401;50.792;4.352;2022-11-14T08:59:34;15.40;59.40
22469;DHT22;11401;50.792;4.352;2022-11-14T09:02:20;15.50;59.10
22469;DHT22;11401;50.792;4.352;2022-11-14T09:05:05;15.60;58.80
22469;DHT22;11401;50.792;4.352;2022-11-14T09:07:51;15.70;58.30
22469;DHT22;11401;50.792;4.352;2022-11-14T09:10:37;15.60;58.10
22469;DHT22;11401;50.792;4.352;2022-11-14T09:13:22;15.70;59.10
22469;DHT22;11401;50.792;4.352;2022-11-14T09:16:08;15.70;58.40
22469;DHT22;11401;50.792;4.352;2022-11-14T09:18:54;15.70;58.10
22469;DHT22;11401;50.792;4.352;2022-11-14T09:21:39;15.60;58.30
22469;DHT22;11401;50.792;4.352;2022-11-14T09:24:25;15.60;58.30
22469;DHT22;11401;50.792;4.352;2022-11-14T09:27:10;15.60;58.70
22469;DHT22;11401;50.792;4.352;2022-11-14T09:29:56;15.60;58.20
22469;DHT22;11401;50.792;4.352;2022-11-14T09:32:41;15.60;58.60
22469;DHT22;11401;50.792;4.352;2022-11-14T09:35:28;15.50;58.20
22469;DHT22;11401;50.792;4.352;2022-11-14T09:38:13;15.60;58.70
22469;DHT22;11401;50.792;4.352;2022-11-14T09:41:04;15.60;58.70
22469;DHT22;11401;50.792;4.352;2022-11-14T09:46:55;15.80;58.50
22469;DHT22;11401;50.792;4.352;2022-11-14T09:49:44;16.00;58.50
22469;DHT22;11401;50.792;4.352;2022-11-14T09:52:35;16.10;58.10
22469;DHT22;11401;50.792;4.352;2022-11-14T09:55:29;16.20;57.90
22469;DHT22;11401;50.792;4.352;2022-11-14T09:58:21;16.30;59.70
22469;DHT22;11401;50.792;4.352;2022-11-14T10:01:23;16.10;57.20
22469;DHT22;11401;50.792;4.352;2022-11-14T10:16:17;16.30;57.70
22469;DHT22;11401;50.792;4.352;2022-11-14T10:19:16;16.30;57.50
22469;DHT22;11401;50.792;4.352;2022-11-14T10:22:14;16.30;57.30
22469;DHT22;11401;50.792;4.352;2022-11-14T10:25:28;16.30;56.80
22469;DHT22;11401;50.792;4.352;2022-11-14T10:28:33;16.40;57.90
22469;DHT22;11401;50.792;4.352;2022-11-14T10:37:34;16.60;57.30
22469;DHT22;11401;50.792;4.352;2022-11-14T10:40:23;16.60;56.50
22469;DHT22;11401;50.792;4.352;2022-11-14T10:46:06;16.30;57.80
22469;DHT22;11401;50.792;4.352;2022-11-14T10:48:53;16.20;55.10
22469;DHT22;11401;50.792;4.352;2022-11-14T10:51:56;16.20;56.60
22469;DHT22;11401;50.792;4.352;2022-11-14T10:54:47;16.00;56.90
22469;DHT22;11401;50.792;4.352;2022-11-14T10:57:34;16.00;57.00
22469;DHT22;11401;50.792;4.352;2022-11-14T11:00:21;15.60;57.00
22469;DHT22;11401;50.792;4.352;2022-11-14T11:03:07;15.30;57.30
22469;DHT22;11401;50.792;4.352;2022-11-14T11:05:53;15.40;59.30
22469;DHT22;11401;50.792;4.352;2022-11-14T11:08:44;15.50;58.90
22469;DHT22;11401;50.792;4.352;2022-11-14T11:11:56;15.60;58.30
22469;DHT22;11401;50.792;4.352;2022-11-14T11:14:43;15.50;58.00
22469;DHT22;11401;50.792;4.352;2022-11-14T11:17:29;15.40;58.40
22469;DHT22;11401;50.792;4.352;2022-11-14T11:20:28;15.40;59.40
22469;DHT22;11401;50.792;4.352;2022-11-14T11:23:19;15.60;58.50
22469;DHT22;11401;50.792;4.352;2022-11-14T11:26:22;15.60;58.80
22469;DHT22;11401;50.792;4.352;2022-11-14T11:31:57;15.70;57.80
22469;DHT22;11401;50.792;4.352;2022-11-14T11:34:43;15.40;58.80
22469;DHT22;11401;50.792;4.352;2022-11-14T11:37:48;14.90;58.90
22469;DHT22;11401;50.792;4.352;2022-11-14T11:40:42;15.00;61.30
22469;DHT22;11401;50.792;4.352;2022-11-14T11:43:44;15.10;59.50
22469;DHT22;11401;50.792;4.352;2022-11-14T11:46:55;15.20;60.30
22469;DHT22;11401;50.792;4.352;2022-11-14T11:49:43;15.50;59.10
22469;DHT22;11401;50.792;4.352;2022-11-14T11:52:46;15.40;59.20
22469;DHT22;11401;50.792;4.352;2022-11-14T11:55:42;15.20;57.70
22469;DHT22;11401;50.792;4.352;2022-11-14T12:01:17;14.80;61.40
22469;DHT22;11401;50.792;4.352;2022-11-14T12:04:02;14.90;61.50
22469;DHT22;11401;50.792;4.352;2022-11-14T12:07:09;15.10;60.70
22469;DHT22;11401;50.792;4.352;2022-11-14T12:09:57;15.30;59.90
22469;DHT22;11401;50.792;4.352;2022-11-14T12:31:58;15.50;58.10
22469;DHT22;11401;50.792;4.352;2022-11-14T12:34:48;15.40;60.00
22469;DHT22;11401;50.792;4.352;2022-11-14T12:37:37;15.60;59.60
22469;DHT22;11401;50.792;4.352;2022-11-14T12:40:39;15.70;59.00
22469;DHT22;11401;50.792;4.352;2022-11-14T12:43:38;15.60;59.20
22469;DHT22;11401;50.792;4.352;2022-11-14T12:46:24;15.50;59.50
22469;DHT22;11401;50.792;4.352;2022-11-14T12:49:35;15.60;59.50
22469;DHT22;11401;50.792;4.352;2022-11-14T12:58:34;15.70;58.40
22469;DHT22;11401;50.792;4.352;2022-11-14T13:01:52;15.80;59.00
22469;DHT22;11401;50.792;4.352;2022-11-14T13:04:45;15.70;58.70
22469;DHT22;11401;50.792;4.352;2022-11-14T13:08:06;15.60;58.90
22469;DHT22;11401;50.792;4.352;2022-11-14T13:10:53;15.60;58.50
22469;DHT22;11401;50.792;4.352;2022-11-14T13:14:00;15.60;59.30
22469;DHT22;11401;50.792;4.352;2022-11-14T13:28:55;15.30;59.50
22469;DHT22;11401;50.792;4.352;2022-11-14T13:31:47;15.30;60.40
22469;DHT22;11401;50.792;4.352;2022-11-14T13:34:52;15.40;60.20
22469;DHT22;11401;50.792;4.352;2022-11-14T13:41:05;15.60;60.00
22469;DHT22;11401;50.792;4.352;2022-11-14T13:44:02;15.70;59.50
22469;DHT22;11401;50.792;4.352;2022-11-14T13:52:45;15.50;60.00
22469;DHT22;11401;50.792;4.352;2022-11-14T13:55:44;15.60;59.80
22469;DHT22;11401;50.792;4.352;2022-11-14T14:20:31;15.80;59.30
22469;DHT22;11401;50.792;4.352;2022-11-14T14:23:36;15.80;59.30
22469;DHT22;11401;50.792;4.352;2022-11-14T14:29:57;15.80;58.80
22469;DHT22;11401;50.792;4.352;2022-11-14T14:33:10;15.90;59.20
22469;DHT22;11401;50.792;4.352;2022-11-14T14:35:56;15.70;59.70
22469;DHT22;11401;50.792;4.352;2022-11-14T14:38:42;15.70;60.10
22469;DHT22;11401;50.792;4.352;2022-11-14T14:41:30;15.60;60.10
22469;DHT22;11401;50.792;4.352;2022-11-14T14:44:25;15.60;60.30
22469;DHT22;11401;50.792;4.352;2022-11-14T14:50:04;15.60;59.80
22469;DHT22;11401;50.792;4.352;2022-11-14T14:53:01;15.70;60.20
22469;DHT22;11401;50.792;4.352;2022-11-14T14:56:17;15.70;59.50
22469;DHT22;11401;50.792;4.352;2022-11-14T14:59:17;15.50;59.70
22469;DHT22;11401;50.792;4.352;2022-11-14T15:02:07;15.60;60.90
22469;DHT22;11401;50.792;4.352;2022-11-14T15:04:56;15.70;60.10
22469;DHT22;11401;50.792;4.352;2022-11-14T15:07:43;15.80;60.20
22469;DHT22;11401;50.792;4.352;2022-11-14T15:10:30;15.90;59.70
22469;DHT22;11401;50.792;4.352;2022-11-14T15:13:17;15.80;59.70
22469;DHT22;11401;50.792;4.352;2022-11-14T15:16:04;15.90;60.00
22469;DHT22;11401;50.792;4.352;2022-11-14T15:18:52;15.90;59.50
22469;DHT22;11401;50.792;4.352;2022-11-14T15:21:38;15.90;60.00
22469;DHT22;11401;50.792;4.352;2022-11-14T15:24:24;16.00;59.80
22469;DHT22;11401;50.792;4.352;2022-11-14T15:27:17;16.00;59.70
22469;DHT22;11401;50.792;4.352;2022-11-14T15:30:05;16.10;59.00
22469;DHT22;11401;50.792;4.352;2022-11-14T15:32:57;16.10;59.30
22469;DHT22;11401;50.792;4.352;2022-11-14T15:35:42;16.00;58.70
22469;DHT22;11401;50.792;4.352;2022-11-14T15:38:28;16.00;59.60
22469;DHT22;11401;50.792;4.352;2022-11-14T15:41:30;16.00;59.60
22469;DHT22;11401;50.792;4.352;2022-11-14T15:44:32;15.80;59.30
22469;DHT22;11401;50.792;4.352;2022-11-14T15:47:38;15.70;59.60
22469;DHT22;11401;50.792;4.352;2022-11-14T15:50:30;15.70;59.90
22469;DHT22;11401;50.792;4.352;2022-11-14T15:53:21;15.80;60.60
22469;DHT22;11401;50.792;4.352;2022-11-14T15:56:10;15.80;59.60
22469;DHT22;11401;50.792;4.352;2022-11-14T15:58:57;15.80;59.90
22469;DHT22;11401;50.792;4.352;2022-11-14T16:01:44;15.90;59.90
22469;DHT22;11401;50.792;4.352;2022-11-14T16:04:33;15.90;59.50
22469;DHT22;11401;50.792;4.352;2022-11-14T16:07:20;15.90;59.70
22469;DHT22;11401;50.792;4.352;2022-11-14T16:10:26;15.90;59.10
22469;DHT22;11401;50.792;4.352;2022-11-14T16:13:11;15.80;59.30
22469;DHT22;11401;50.792;4.352;2022-11-14T16:15:57;15.80;60.00
22469;DHT22;11401;50.792;4.352;2022-11-14T16:18:43;15.90;59.80
22469;DHT22;11401;50.792;4.352;2022-11-14T16:21:28;16.00;59.60
22469;DHT22;11401;50.792;4.352;2022-11-14T16:24:19;16.00;58.90
22469;DHT22;11401;50.792;4.352;2022-11-14T16:27:06;16.00;59.20
22469;DHT22;11401;50.792;4.352;2022-11-14T16:29:52;16.00;59.00
22469;DHT22;11401;50.792;4.352;2022-11-14T16:32:39;16.00;59.10
22469;DHT22;11401;50.792;4.352;2022-11-14T16:35:25;16.10;60.00
22469;DHT22;11401;50.792;4.352;2022-11-14T16:38:12;16.10;59.40
22469;DHT22;11401;50.792;4.352;2022-11-14T16:40:57;16.10;59.10
22469;DHT22;11401;50.792;4.352;2022-11-14T16:43:45;16.00;59.20
22469;DHT22;11401;50.792;4.352;2022-11-14T16:46:31;15.90;59.40
22469;DHT22;11401;50.792;4.352;2022-11-14T16:49:16;16.00;60.50
22469;DHT22;11401;50.792;4.352;2022-11-14T16:52:03;16.00;59.70
22469;DHT22;11401;50.792;4.352;2022-11-14T16:54:52;16.00;59.50
22469;DHT22;11401;50.792;4.352;2022-11-14T16:57:38;16.10;59.40
22469;DHT22;11401;50.792;4.352;2022-11-14T17:00:24;16.00;59.60
22469;DHT22;11401;50.792;4.352;2022-11-14T17:03:09;16.10;59.70
22469;DHT22;11401;50.792;4.352;2022-11-14T17:05:55;16.20;59.50
22469;DHT22;11401;50.792;4.352;2022-11-14T17:08:40;16.20;58.50
22469;DHT22;11401;50.792;4.352;2022-11-14T17:11:26;16.10;59.30
22469;DHT22;11401;50.792;4.352;2022-11-14T17:14:12;16.10;59.50
22469;DHT22;11401;50.792;4.352;2022-11-14T17:16:58;16.00;59.40
22469;DHT22;11401;50.792;4.352;2022-11-14T17:19:46;16.00;59.40
22469;DHT22;11401;50.792;4.352;2022-11-14T17:22:32;16.10;59.90
22469;DHT22;11401;50.792;4.352;2022-11-14T17:25:17;16.10;59.70
22469;DHT22;11401;50.792;4.352;2022-11-14T17:28:03;16.20;59.20
22469;DHT22;11401;50.792;4.352;2022-11-14T17:30:48;16.10;59.30
22469;DHT22;11401;50.792;4.352;2022-11-14T17:33:34;16.20;59.60
22469;DHT22;11401;50.792;4.352;2022-11-14T17:36:21;16.30;59.10
22469;DHT22;11401;50.792;4.352;2022-11-14T17:39:07;16.40;59.20
22469;DHT22;11401;50.792;4.352;2022-11-14T17:41:52;16.30;59.00
22469;DHT22;11401;50.792;4.352;2022-11-14T17:44:38;16.10;57.90
22469;DHT22;11401;50.792;4.352;2022-11-14T17:47:23;16.10;57.60
22469;DHT22;11401;50.792;4.352;2022-11-14T17:50:09;16.20;56.80
22469;DHT22;11401;50.792;4.352;2022-11-14T17:52:54;16.10;57.10
22469;DHT22;11401;50.792;4.352;2022-11-14T17:55:40;16.10;57.50
22469;DHT22;11401;50.792;4.352;2022-11-14T17:58:29;16.10;57.00
22469;DHT22;11401;50.792;4.352;2022-11-14T18:01:21;16.10;56.80
22469;DHT22;11401;50.792;4.352;2022-11-14T18:04:07;16.30;58.20
22469;DHT22;11401;50.792;4.352;2022-11-14T18:06:53;16.30;56.60
22469;DHT22;11401;50.792;4.352;2022-11-14T18:09:39;16.20;57.70
22469;DHT22;11401;50.792;4.352;2022-11-14T18:12:25;16.30;57.30
22469;DHT22;11401;50.792;4.352;2022-11-14T18:15:11;16.30;56.70
22469;DHT22;11401;50.792;4.352;2022-11-14T18:17:57;16.30;57.20
22469;DHT22;11401;50.792;4.352;2022-11-14T18:20:42;16.30;57.10
22469;DHT22;11401;50.792;4.352;2022-11-14T18:23:28;16.50;57.60
22469;DHT22;11401;50.792;4.352;2022-11-14T18:26:15;16.40;56.80
22469;DHT22;11401;50.792;4.352;2022-11-14T18:29:01;16.30;57.40
22469;DHT22;11401;50.792;4.352;2022-11-14T18:31:47;16.20;57.10
22469;DHT22;11401;50.792;4.352;2022-11-14T18:34:32;16.20;58.10
22469;DHT22;11401;50.792;4.352;2022-11-14T18:37:21;16.30;59.30
22469;DHT22;11401;50.792;4.352;2022-11-14T18:40:08;16.30;58.40
22469;DHT22;11401;50.792;4.352;2022-11-14T18:43:01;16.30;59.40
22469;DHT22;11401;50.792;4.352;2022-11-14T18:45:46;16.30;59.70
22469;DHT22;11401;50.792;4.352;2022-11-14T18:48:32;16.40;59.70
22469;DHT22;11401;50.792;4.352;2022-11-14T18:51:19;16.40;59.60
22469;DHT22;11401;50.792;4.352;2022-11-14T18:54:07;16.50;60.40
22469;DHT22;11401;50.792;4.352;2022-11-14T18:56:53;16.60;59.90
22469;DHT22;11401;50.792;4.352;2022-11-14T18:59:38;16.60;59.80
22469;DHT22;11401;50.792;4.352;2022-11-14T19:02:24;16.50;59.80
22469;DHT22;11401;50.792;4.352;2022-11-14T19:05:09;16.50;60.10
22469;DHT22;11401;50.792;4.352;2022-11-14T19:07:55;16.60;59.60
22469;DHT22;11401;50.792;4.352;2022-11-14T19:10:40;16.60;60.70
22469;DHT22;11401;50.792;4.352;2022-11-14T19:13:26;16.70;59.90
22469;DHT22;11401;50.792;4.352;2022-11-14T19:16:11;16.60;59.20
22469;DHT22;11401;50.792;4.352;2022-11-14T19:18:58;16.60;60.10
22469;DHT22;11401;50.792;4.352;2022-11-14T19:21:43;16.70;60.00
22469;DHT22;11401;50.792;4.352;2022-11-14T19:24:29;16.70;60.00
22469;DHT22;11401;50.792;4.352;2022-11-14T19:27:14;16.70;60.20